createdAt,value
2023-01-20T00:02:04.034Z,12.13
2023-01-20T00:04:35.734Z,13.65
2023-01-20T00:07:07.377Z,14.52
2023-01-20T00:09:39.014Z,13.93
2023-01-20T00:12:10.691Z,13.45
2023-01-20T00:14:42.310Z,12.68
2023-01-20T00:17:13.935Z,13.35
2023-01-20T00:19:45.654Z,13.13
2023-01-20T00:22:17.298Z,12.90
2023-01-20T00:24:49.061Z,11.70
2023-01-20T00:27:20.735Z,12.35
2023-01-20T00:29:52.386Z,11.02
2023-01-20T00:32:24.089Z,10.88
2023-01-20T00:34:55.762Z,11.30
2023-01-20T00:37:27.406Z,11.85
2023-01-20T00:39:59.065Z,9.95
2023-01-20T00:42:30.732Z,11.02
2023-01-20T00:45:02.495Z,11.40
2023-01-20T00:47:34.163Z,10.80
2023-01-20T00:50:06.158Z,10.90
2023-01-20T00:52:37.886Z,11.32
2023-01-20T00:55:09.916Z,11.70
2023-01-20T00:57:41.590Z,11.55
2023-01-20T01:00:13.722Z,12.32
2023-01-20T01:02:48.097Z,12.02
2023-01-20T01:05:19.854Z,11.77
2023-01-20T01:07:51.678Z,11.25
2023-01-20T01:10:23.403Z,11.00
2023-01-20T01:12:55.191Z,10.50
2023-01-20T01:15:29.455Z,12.02
2023-01-20T01:18:01.743Z,11.27
2023-01-20T01:20:33.491Z,11.25
2023-01-20T01:23:05.142Z,11.65
2023-01-20T01:25:40.325Z,11.98
2023-01-20T01:28:12.002Z,11.98
2023-01-20T01:30:43.832Z,12.65
2023-01-20T01:33:15.539Z,11.63
2023-01-20T01:35:57.404Z,12.63
2023-01-20T01:38:29.747Z,11.40
2023-01-20T01:41:01.648Z,12.57
2023-01-20T01:43:36.351Z,12.00
2023-01-20T01:46:08.634Z,12.23
2023-01-20T01:48:45.270Z,11.77
2023-01-20T01:51:25.689Z,12.07
2023-01-20T01:54:02.972Z,11.68
2023-01-20T01:56:39.522Z,11.43
2023-01-20T01:59:13.137Z,12.35
2023-01-20T02:01:50.188Z,12.18
2023-01-20T02:04:27.310Z,11.75
2023-01-20T02:07:04.591Z,11.88
2023-01-20T02:09:37.805Z,12.60
2023-01-20T02:12:15.475Z,12.90
2023-01-20T02:14:54.299Z,12.38
2023-01-20T02:17:30.313Z,12.80
2023-01-20T02:20:01.842Z,12.20
2023-01-20T02:22:37.854Z,12.27
2023-01-20T02:25:38.959Z,13.35
2023-01-20T02:28:41.201Z,12.80
2023-01-20T02:31:57.843Z,12.77
2023-01-20T02:34:59.045Z,12.35
2023-01-20T02:37:45.399Z,12.65
2023-01-20T02:40:39.879Z,11.82
2023-01-20T02:43:37.963Z,13.57
2023-01-20T02:46:16.396Z,11.98
2023-01-20T02:49:02.113Z,12.27
2023-01-20T02:51:54.120Z,11.35
2023-01-20T02:54:30.682Z,12.07
2023-01-20T02:57:06.240Z,11.38
2023-01-20T02:59:45.770Z,12.07
2023-01-20T03:02:21.132Z,13.35
2023-01-20T03:05:05.003Z,13.07
2023-01-20T03:07:40.182Z,12.25
2023-01-20T03:10:17.753Z,12.63
2023-01-20T03:12:55.803Z,13.02
2023-01-20T03:15:41.682Z,12.18
2023-01-20T03:18:13.365Z,10.55
2023-01-20T03:20:44.980Z,12.60
2023-01-20T03:23:16.879Z,11.43
2023-01-20T03:25:51.986Z,12.30
2023-01-20T03:28:25.741Z,12.48
2023-01-20T03:30:59.940Z,11.77
2023-01-20T03:33:33.278Z,12.38
2023-01-20T03:36:05.482Z,12.00
2023-01-20T03:38:37.210Z,12.00
2023-01-20T03:41:54.497Z,12.40
2023-01-20T03:44:47.990Z,12.02
2023-01-20T03:47:42.323Z,11.75
2023-01-20T03:50:45.935Z,12.50
2023-01-20T03:53:46.855Z,13.88
2023-01-20T03:56:35.353Z,12.55
2023-01-20T03:59:10.339Z,12.63
2023-01-20T04:01:44.480Z,12.18
2023-01-20T04:04:20.155Z,11.65
2023-01-20T04:06:52.515Z,11.95
2023-01-20T04:09:30.178Z,12.52
2023-01-20T04:12:04.107Z,12.00
2023-01-20T04:14:36.439Z,12.45
2023-01-20T04:17:08.457Z,13.40
2023-01-20T04:19:40.355Z,14.77
2023-01-20T04:22:28.082Z,14.43
2023-01-20T04:25:24.516Z,13.60
2023-01-20T04:27:56.343Z,13.80
2023-01-20T04:30:28.082Z,12.70
2023-01-20T04:32:59.841Z,12.10
2023-01-20T04:35:31.468Z,11.50
2023-01-20T04:38:03.142Z,11.85
2023-01-20T04:40:36.930Z,12.25
2023-01-20T04:43:10.156Z,13.63
2023-01-20T04:45:42.014Z,13.13
2023-01-20T04:48:13.671Z,12.57
2023-01-20T04:50:45.470Z,13.43
2023-01-20T04:53:19.285Z,12.98
2023-01-20T04:55:53.606Z,12.83
2023-01-20T04:58:25.710Z,13.45
2023-01-20T05:00:57.340Z,14.13
2023-01-20T05:03:29.010Z,13.55
2023-01-20T05:06:00.760Z,13.02
2023-01-20T05:08:33.366Z,12.68
2023-01-20T05:11:05.597Z,12.52
2023-01-20T05:13:39.435Z,13.20
2023-01-20T05:16:11.497Z,11.67
2023-01-20T05:18:43.181Z,12.27
2023-01-20T05:21:14.860Z,12.38
2023-01-20T05:23:46.548Z,11.68
2023-01-20T05:26:20.236Z,11.05
2023-01-20T05:28:52.224Z,11.50
2023-01-20T05:31:24.065Z,11.35
2023-01-20T05:33:55.846Z,10.88
2023-01-20T05:36:28.356Z,10.85
2023-01-20T05:39:00.039Z,11.20
2023-01-20T05:41:31.720Z,11.18
2023-01-20T05:44:03.464Z,10.77
2023-01-20T05:46:35.166Z,12.60
2023-01-20T05:49:06.921Z,11.30
2023-01-20T05:51:38.726Z,12.10
2023-01-20T05:54:10.485Z,12.55
2023-01-20T05:56:42.157Z,12.45
2023-01-20T05:59:13.824Z,12.32
2023-01-20T06:01:45.510Z,12.00
2023-01-20T06:04:17.191Z,11.93
2023-01-20T06:06:51.747Z,11.95
2023-01-20T06:09:23.500Z,12.38
2023-01-20T06:11:55.129Z,13.07
2023-01-20T06:14:26.858Z,18.48
2023-01-20T06:16:58.526Z,21.17
2023-01-20T06:19:30.223Z,19.83
2023-01-20T06:22:02.256Z,19.42
2023-01-20T06:24:37.035Z,19.42
2023-01-20T06:29:45.674Z,16.80
2023-01-20T06:32:20.235Z,13.70
2023-01-20T06:34:56.275Z,11.75
2023-01-20T06:37:28.016Z,11.55
2023-01-20T06:39:59.738Z,11.50
2023-01-20T06:42:32.209Z,11.25
2023-01-20T06:45:04.242Z,11.10
2023-01-20T06:47:36.213Z,10.40
2023-01-20T06:50:08.483Z,11.68
2023-01-20T06:52:40.130Z,11.50
2023-01-20T06:55:11.873Z,11.43
2023-01-20T06:57:46.073Z,11.07
2023-01-20T07:00:18.151Z,11.23
2023-01-20T07:02:49.824Z,13.05
2023-01-20T07:05:21.552Z,11.90
2023-01-20T07:07:53.292Z,11.82
2023-01-20T07:10:24.938Z,11.23
2023-01-20T07:12:59.327Z,14.20
2023-01-20T07:15:31.031Z,17.00
2023-01-20T07:18:02.682Z,14.98
2023-01-20T07:20:34.528Z,14.65
2023-01-20T07:23:07.155Z,14.10
2023-01-20T07:25:39.596Z,12.15
2023-01-20T07:28:11.262Z,12.80
2023-01-20T07:30:42.908Z,12.32
2023-01-20T07:33:14.587Z,13.27
2023-01-20T07:35:52.191Z,12.55
2023-01-20T07:38:25.094Z,13.70
2023-01-20T07:41:01.686Z,13.88
2023-01-20T07:43:34.486Z,14.45
2023-01-20T07:46:06.295Z,13.63
2023-01-20T07:48:38.442Z,13.00
2023-01-20T07:51:12.004Z,13.00
2023-01-20T07:53:46.981Z,13.55
2023-01-20T07:56:24.081Z,13.15
2023-01-20T07:58:56.381Z,13.88
2023-01-20T08:01:31.081Z,12.88
2023-01-20T08:04:03.013Z,13.18
2023-01-20T08:06:34.798Z,12.63
2023-01-20T08:09:08.958Z,12.50
2023-01-20T08:11:40.841Z,11.40
2023-01-20T08:14:12.573Z,11.52
2023-01-20T08:16:44.706Z,12.48
2023-01-20T08:19:16.471Z,12.25
2023-01-20T08:21:48.137Z,11.75
2023-01-20T08:24:19.859Z,11.98
2023-01-20T08:26:51.515Z,11.57
2023-01-20T08:29:23.226Z,11.77
2023-01-20T08:31:55.061Z,12.23
2023-01-20T08:34:27.407Z,11.95
2023-01-20T08:36:59.079Z,12.35
2023-01-20T08:39:31.894Z,11.98
2023-01-20T08:42:03.757Z,12.88
2023-01-20T08:44:35.448Z,12.68
2023-01-20T08:47:07.231Z,13.68
2023-01-20T08:49:38.933Z,14.85
2023-01-20T08:52:12.188Z,13.60
2023-01-20T08:54:44.027Z,13.13
2023-01-20T08:57:16.215Z,14.10
2023-01-20T08:59:48.230Z,12.50
2023-01-20T09:02:20.046Z,14.85
2023-01-20T09:04:52.561Z,14.43
2023-01-20T09:07:24.235Z,14.38
2023-01-20T09:09:55.846Z,14.27
2023-01-20T09:12:27.571Z,15.63
2023-01-20T09:14:59.251Z,14.23
2023-01-20T09:17:31.352Z,15.50
2023-01-20T09:20:06.306Z,14.85
2023-01-20T09:22:40.302Z,16.13
2023-01-20T09:25:12.157Z,15.32
2023-01-20T09:27:43.817Z,15.73
2023-01-20T09:30:17.987Z,14.93
2023-01-20T09:32:53.158Z,14.60
2023-01-20T09:35:25.096Z,15.80
2023-01-20T09:38:15.291Z,15.57
2023-01-20T09:41:17.460Z,15.52
2023-01-20T09:44:02.022Z,15.02
2023-01-20T09:47:09.071Z,15.52
2023-01-20T09:50:12.567Z,15.95
2023-01-20T09:53:03.889Z,14.45
2023-01-20T09:55:58.493Z,13.27
2023-01-20T09:58:51.573Z,14.35
2023-01-20T10:01:38.176Z,12.55
2023-01-20T10:04:19.923Z,11.98
2023-01-20T10:06:53.098Z,12.85
2023-01-20T10:09:46.351Z,12.43
2023-01-20T10:12:27.745Z,12.50
2023-01-20T10:15:24.466Z,11.68
2023-01-20T10:18:13.094Z,12.63
2023-01-20T10:20:58.641Z,12.52
2023-01-20T10:23:43.034Z,12.38
2023-01-20T10:26:43.958Z,13.75
2023-01-20T10:29:34.265Z,13.77
2023-01-20T10:32:32.163Z,13.48
2023-01-20T10:35:15.568Z,14.68
2023-01-20T10:37:47.824Z,14.88
2023-01-20T10:40:30.342Z,15.63
2023-01-20T10:43:11.354Z,16.20
2023-01-20T10:45:42.979Z,14.68
2023-01-20T10:48:30.467Z,14.43
2023-01-20T10:51:23.457Z,13.80
2023-01-20T10:54:27.103Z,15.25
2023-01-20T10:57:01.076Z,15.52
2023-01-20T10:59:37.644Z,14.67
2023-01-20T11:02:35.125Z,15.68
2023-01-20T11:05:25.997Z,13.82
2023-01-20T11:08:00.648Z,15.25
2023-01-20T11:10:33.448Z,14.48
2023-01-20T11:13:05.189Z,15.73
2023-01-20T11:15:48.775Z,16.70
2023-01-20T11:18:24.292Z,16.38
2023-01-20T11:20:57.816Z,17.23
2023-01-20T11:23:36.782Z,17.05
2023-01-20T11:26:20.021Z,17.08
2023-01-20T11:29:11.083Z,17.80
2023-01-20T11:31:49.652Z,16.83
2023-01-20T11:34:28.424Z,15.88
2023-01-20T11:37:03.048Z,16.35
2023-01-20T11:39:59.012Z,16.15
2023-01-20T11:42:42.665Z,17.02
2023-01-20T11:45:36.822Z,16.02
2023-01-20T11:48:16.304Z,16.17
2023-01-20T11:50:54.324Z,15.13
2023-01-20T11:53:34.530Z,16.02
2023-01-20T11:56:18.836Z,15.00
2023-01-20T11:58:56.282Z,15.23
2023-01-20T12:01:30.524Z,15.40
2023-01-20T12:04:25.134Z,15.45
2023-01-20T12:07:08.549Z,15.90
2023-01-20T12:09:47.064Z,17.38
2023-01-20T12:12:37.779Z,15.68
2023-01-20T12:15:19.308Z,14.93
2023-01-20T12:18:09.690Z,15.73
2023-01-20T12:21:08.121Z,16.77
2023-01-20T12:23:48.696Z,15.55
2023-01-20T12:26:22.651Z,16.60
2023-01-20T12:29:22.854Z,16.80
2023-01-20T12:31:54.750Z,16.20
2023-01-20T12:34:30.976Z,15.90
2023-01-20T12:37:29.745Z,16.95
2023-01-20T12:40:30.269Z,18.35
2023-01-20T12:43:27.151Z,16.73
2023-01-20T12:46:20.219Z,17.08
2023-01-20T12:49:12.948Z,16.08
2023-01-20T12:52:10.703Z,15.88
2023-01-20T12:54:56.311Z,16.40
2023-01-20T12:57:46.076Z,15.95
2023-01-20T13:00:54.408Z,16.58
2023-01-20T13:03:50.055Z,16.30
2023-01-20T13:09:52.109Z,18.60
2023-01-20T13:12:35.829Z,17.85
2023-01-20T13:15:29.168Z,17.75
2023-01-20T13:18:21.704Z,17.70
2023-01-20T13:20:55.130Z,18.52
2023-01-20T13:23:36.877Z,19.90
2023-01-20T13:26:09.205Z,19.23
2023-01-20T13:28:52.065Z,18.25
2023-01-20T13:31:37.224Z,18.38
2023-01-20T13:37:26.688Z,17.77
2023-01-20T13:40:01.800Z,18.05
2023-01-20T13:42:36.277Z,19.60
2023-01-20T13:45:14.655Z,19.65
2023-01-20T13:47:59.470Z,19.17
2023-01-20T13:50:37.966Z,17.10
2023-01-20T13:53:13.080Z,19.27
2023-01-20T13:55:44.651Z,18.90
2023-01-20T13:58:22.074Z,18.63
2023-01-20T14:00:55.155Z,18.80
2023-01-20T14:03:36.212Z,17.83
2023-01-20T14:06:13.815Z,18.75
2023-01-20T14:08:51.011Z,18.25
2023-01-20T14:11:27.229Z,17.73
2023-01-20T14:14:06.105Z,16.88
2023-01-20T14:16:41.218Z,17.23
2023-01-20T14:19:22.512Z,16.38
2023-01-20T14:22:01.833Z,15.93
2023-01-20T14:24:42.924Z,16.40
2023-01-20T14:27:27.273Z,17.05
2023-01-20T14:30:18.900Z,16.58
2023-01-20T14:32:51.823Z,17.15
2023-01-20T14:35:36.492Z,16.80
2023-01-20T14:38:18.491Z,15.88
2023-01-20T14:40:50.237Z,16.40
2023-01-20T14:43:27.659Z,14.90
2023-01-20T14:45:59.818Z,15.82
2023-01-20T14:48:34.940Z,15.48
2023-01-20T14:51:08.372Z,15.55
2023-01-20T14:53:40.025Z,15.10
2023-01-20T14:56:21.601Z,16.92
2023-01-20T14:58:55.061Z,18.73
2023-01-20T15:01:26.944Z,17.77
2023-01-20T15:04:01.926Z,18.33
2023-01-20T15:06:33.675Z,18.27
2023-01-20T15:09:24.792Z,18.15
2023-01-20T15:12:34.002Z,18.13
2023-01-20T15:15:39.561Z,17.50
2023-01-20T15:18:11.276Z,17.38
2023-01-20T15:20:51.624Z,17.02
2023-01-20T15:23:45.972Z,17.15
2023-01-20T15:26:30.126Z,17.08
2023-01-20T15:29:01.822Z,17.08
2023-01-20T15:31:33.471Z,15.30
2023-01-20T15:34:05.156Z,16.17
2023-01-20T15:36:39.609Z,18.17
2023-01-20T15:39:12.970Z,17.23
2023-01-20T15:41:45.934Z,19.20
2023-01-20T15:44:17.599Z,17.73
2023-01-20T15:46:49.383Z,18.27
2023-01-20T15:49:21.254Z,18.90
2023-01-20T15:51:53.070Z,18.58
2023-01-20T15:54:27.722Z,18.83
2023-01-20T15:56:59.994Z,18.30
2023-01-20T15:59:32.513Z,19.80
2023-01-20T16:02:08.950Z,18.20
2023-01-20T16:04:40.581Z,19.42
2023-01-20T16:07:17.988Z,18.77
2023-01-20T16:09:49.743Z,18.95
2023-01-20T16:12:21.389Z,19.40
2023-01-20T16:14:53.060Z,19.08
2023-01-20T16:17:26.056Z,16.75
2023-01-20T16:19:58.311Z,18.40
2023-01-20T16:22:29.975Z,18.58
2023-01-20T16:25:01.618Z,18.63
2023-01-20T16:27:33.273Z,17.90
2023-01-20T16:30:05.731Z,18.55
2023-01-20T16:32:37.331Z,19.77
2023-01-20T16:35:09.258Z,19.45
2023-01-20T16:37:42.201Z,18.63
2023-01-20T16:40:16.686Z,19.75
2023-01-20T16:42:48.807Z,18.42
2023-01-20T16:45:27.907Z,17.75
2023-01-20T16:47:59.657Z,18.40
2023-01-20T16:50:34.184Z,19.83
2023-01-20T16:53:05.847Z,20.02
2023-01-20T16:55:57.880Z,19.52
2023-01-20T16:58:35.283Z,19.00
2023-01-20T17:01:12.369Z,20.77
2023-01-20T17:03:56.334Z,20.65
2023-01-20T17:06:35.026Z,20.25
2023-01-20T17:09:25.121Z,20.52
2023-01-20T17:12:05.424Z,20.48
2023-01-20T17:14:40.358Z,21.33
2023-01-20T17:17:21.498Z,20.67
2023-01-20T17:19:54.310Z,20.17
2023-01-20T17:22:31.674Z,20.50
2023-01-20T17:25:07.661Z,20.25
2023-01-20T17:27:43.299Z,19.48
2023-01-20T17:30:17.018Z,21.00
2023-01-20T17:32:49.359Z,20.02
2023-01-20T17:35:20.996Z,19.10
2023-01-20T17:37:52.630Z,19.42
2023-01-20T17:40:24.243Z,19.13
2023-01-20T17:42:58.029Z,19.02
2023-01-20T17:45:31.921Z,20.20
2023-01-20T17:48:04.707Z,17.90
2023-01-20T17:50:39.265Z,19.00
2023-01-20T17:53:10.989Z,18.70
2023-01-20T17:55:42.638Z,18.25
2023-01-20T17:58:14.378Z,16.75
2023-01-20T18:00:46.042Z,17.13
2023-01-20T18:03:17.720Z,17.58
2023-01-20T18:05:49.465Z,17.70
2023-01-20T18:08:21.194Z,17.33
2023-01-20T18:10:52.886Z,17.00
2023-01-20T18:13:24.624Z,18.58
2023-01-20T18:15:58.274Z,15.63
2023-01-20T18:18:29.931Z,17.42
2023-01-20T18:21:22.159Z,19.42
2023-01-20T18:23:53.966Z,16.33
2023-01-20T18:26:29.558Z,18.17
2023-01-20T18:29:05.612Z,16.55
2023-01-20T18:31:37.394Z,15.52
2023-01-20T18:34:12.368Z,16.38
2023-01-20T18:39:23.632Z,16.73
2023-01-20T18:41:55.371Z,16.05
2023-01-20T18:44:27.138Z,15.80
2023-01-20T18:46:58.867Z,17.40
2023-01-20T18:49:31.526Z,15.88
2023-01-20T18:52:03.375Z,16.88
2023-01-20T18:54:37.199Z,12.55
2023-01-20T18:57:09.240Z,16.05
2023-01-20T18:59:42.091Z,16.90
2023-01-20T19:02:13.927Z,15.90
2023-01-20T19:04:45.651Z,15.00
2023-01-20T19:07:17.330Z,15.80
2023-01-20T19:09:49.040Z,16.48
2023-01-20T19:12:20.678Z,15.27
2023-01-20T19:14:52.735Z,16.20
2023-01-20T19:17:26.663Z,16.13
2023-01-20T19:19:58.874Z,15.53
2023-01-20T19:22:30.894Z,16.83
2023-01-20T19:25:02.590Z,16.02
2023-01-20T19:27:34.239Z,14.32
2023-01-20T19:30:06.706Z,14.55
2023-01-20T19:32:42.218Z,15.93
2023-01-20T19:35:14.031Z,14.80
2023-01-20T19:37:45.657Z,14.43
2023-01-20T19:40:17.682Z,15.93
2023-01-20T19:42:52.485Z,15.52
2023-01-20T19:45:26.909Z,15.13
2023-01-20T19:48:00.633Z,15.38
2023-01-20T19:50:32.735Z,14.38
2023-01-20T19:53:04.405Z,13.13
2023-01-20T19:55:36.082Z,14.05
2023-01-20T19:58:07.740Z,13.90
2023-01-20T20:00:39.441Z,12.85
2023-01-20T20:03:11.173Z,13.95
2023-01-20T20:05:44.097Z,13.50
2023-01-20T20:08:15.737Z,13.98
2023-01-20T20:10:47.430Z,13.45
2023-01-20T20:13:20.588Z,13.15
2023-01-20T20:16:03.816Z,13.18
2023-01-20T20:18:35.507Z,13.13
2023-01-20T20:21:08.446Z,13.20
2023-01-20T20:23:40.169Z,13.65
2023-01-20T20:26:12.616Z,12.48
2023-01-20T20:28:44.788Z,13.45
2023-01-20T20:31:17.136Z,12.25
2023-01-20T20:33:48.923Z,11.95
2023-01-20T20:36:20.801Z,11.80
2023-01-20T20:38:53.948Z,11.75
2023-01-20T20:41:29.391Z,12.45
2023-01-20T20:44:01.850Z,11.68
2023-01-20T20:46:33.659Z,11.20
2023-01-20T20:49:05.408Z,12.05
2023-01-20T20:51:39.123Z,10.50
2023-01-20T20:54:13.177Z,10.75
2023-01-20T20:56:45.753Z,9.82
2023-01-20T20:59:22.935Z,10.15
2023-01-20T21:01:54.706Z,11.02
2023-01-20T21:04:27.013Z,10.73
2023-01-20T21:06:58.652Z,10.40
2023-01-20T21:09:30.422Z,9.75
2023-01-20T21:12:02.117Z,10.88
2023-01-20T21:14:33.774Z,10.55
2023-01-20T21:17:05.504Z,11.10
2023-01-20T21:19:37.183Z,10.10
2023-01-20T21:22:08.984Z,10.52
2023-01-20T21:24:40.735Z,10.23
2023-01-20T21:27:12.425Z,9.98
2023-01-20T21:29:44.439Z,11.27
2023-01-20T21:32:16.252Z,10.73
2023-01-20T21:34:47.970Z,10.15
2023-01-20T21:37:21.045Z,11.20
2023-01-20T21:39:52.704Z,11.00
2023-01-20T21:42:24.413Z,10.57
2023-01-20T21:44:56.236Z,9.80
2023-01-20T21:47:27.918Z,10.43
2023-01-20T21:50:18.404Z,10.32
2023-01-20T21:52:50.310Z,10.57
2023-01-20T21:55:24.187Z,9.18
2023-01-20T21:57:56.412Z,9.13
2023-01-20T22:00:30.113Z,10.15
2023-01-20T22:03:01.910Z,9.55
2023-01-20T22:05:38.458Z,9.65
2023-01-20T22:08:10.097Z,9.02
2023-01-20T22:10:41.771Z,9.90
2023-01-20T22:13:13.437Z,9.98
2023-01-20T22:15:45.086Z,9.10
2023-01-20T22:18:21.365Z,10.70
2023-01-20T22:20:53.039Z,11.13
2023-01-20T22:23:24.769Z,9.25
2023-01-20T22:25:57.889Z,9.45
2023-01-20T22:28:30.265Z,9.13
2023-01-20T22:31:10.775Z,9.75
2023-01-20T22:33:42.888Z,9.90
2023-01-20T22:36:14.562Z,9.55
2023-01-20T22:38:46.334Z,9.48
2023-01-20T22:41:19.712Z,9.05
2023-01-20T22:43:51.945Z,8.85
2023-01-20T22:46:26.035Z,9.05
2023-01-20T22:48:59.181Z,8.90
2023-01-20T22:51:30.967Z,8.98
2023-01-20T22:54:02.841Z,10.07
2023-01-20T22:56:34.529Z,8.95
2023-01-20T22:59:08.833Z,7.53
2023-01-20T23:01:40.541Z,9.02
2023-01-20T23:04:12.238Z,7.75
2023-01-20T23:06:43.882Z,7.63
2023-01-20T23:09:15.604Z,8.00
2023-01-20T23:11:48.608Z,7.88
2023-01-20T23:14:41.306Z,8.82
2023-01-20T23:17:13.083Z,7.45
2023-01-20T23:19:47.751Z,8.63
2023-01-20T23:24:51.409Z,8.10
2023-01-20T23:27:23.073Z,8.48
2023-01-20T23:29:55.772Z,8.18
2023-01-20T23:32:27.489Z,7.90
2023-01-20T23:34:59.139Z,8.55
2023-01-20T23:37:30.802Z,8.85
2023-01-20T23:40:02.684Z,8.05
2023-01-20T23:42:34.366Z,8.27
2023-01-20T23:45:09.331Z,8.27
2023-01-20T23:47:40.996Z,7.05
2023-01-20T23:50:12.747Z,7.88
2023-01-20T23:52:47.424Z,8.25
2023-01-20T23:55:19.217Z,6.35
2023-01-20T23:57:50.855Z,6.78
